Columbus, North Dakota
Current Conditions -  °F | °C
As of 12:00 AM on Monday 20 Oct 2014 (Local Time) from CYEN Reporting Station
Clear Clear  
Wind Chill: 39°   Ceiling: Unl
Heat Index: 43°   Visibility: 15mi
Dew Point: 37°   Wind: 6mph
Humidity: 81%   Direction: 180°S
Pressure: 29.97"   Gusts: NA
Location:  48.9°N, 102.78°W
Report Text: CYEN 200500Z 18005KT 15SM SKC 06/03 A2997 RMK SLP167
Loading
Personal Weather Stations






























Interactive Weather Map New forecast layout! Learn more

10-Day Weather Forecast

Advertisements
Track Severe Weather on mobile